KSOW/SOW METAR and TAF weather

Enter ICAO airport designator
Station Type Date Time Source
KSOW METAR 2021/07/27 21:55 UTC NOAA

KSOW 272155Z AUTO 25008KT 10SM FEW090 27/10 A3031 RMK AO2 LTG DSNT ALQDS


Station Type Date Time Source
KSOW Decoded METAR 2021/07/27 21:55 UTC NOAA

Show Low, Show Low Regional Airport, AZ, United States (KSOW) 34-15-55N 110-00-20W
Jul 27, 2021 - 05:55 PM EDT / 2021.07.27 2155 UTC
Wind: from the WSW (250 degrees) at 9 MPH (8 KT):0
Visibility: 10 mile(s):0
Sky conditions: mostly clear
Weather: Lightning observed
Temperature: 80 F (27 C)
Dew Point: 50 F (10 C)
Relative Humidity: 34%
Pressure (altimeter): 30.31 in. Hg (1026 hPa)
ob: KSOW 272155Z AUTO 25008KT 10SM FEW090 27/10 A3031 RMK AO2 LTG DSNT ALQDS
cycle: 22

Station Type Date Time Source
KSOW TAF UTC NOAA

Error!

Example: see airport list